Time;durP1;ratioP1;P1;durP2;ratioP2;P2;SDS_P1;SDS_P2;PMS_P1;PMS_P2;Temp;Humidity;BMP_temperature;BMP_pressure;BME280_temperature;BME280_humidity;BME280_pressure;Samples;Min_cycle;Max_cycle;Signal;HPM_P1;HPM_P2
2023/05/30 00:01:56;;;;;;;10.45;3.60;;;11.90;75.90;;;;;;5005352;28;20805;-81
2023/05/30 00:04:23;;;;;;;9.43;4.07;;;11.80;75.90;;;;;;5038353;28;20402;-81
2023/05/30 00:06:49;;;;;;;11.35;4.70;;;11.80;76.00;;;;;;5038225;28;20785;-82
2023/05/30 00:09:15;;;;;;;9.65;3.90;;;11.80;76.10;;;;;;5038299;28;20041;-82
2023/05/30 00:11:40;;;;;;;19.00;5.00;;;11.80;76.20;;;;;;5021800;28;20067;-82
2023/05/30 00:14:08;;;;;;;9.10;3.83;;;11.80;76.30;;;;;;5038070;28;20118;-81
2023/05/30 00:16:34;;;;;;;10.77;4.40;;;11.80;76.40;;;;;;5021541;28;20037;-81
2023/05/30 00:19:00;;;;;;;10.68;3.88;;;11.80;76.30;;;;;;5038136;28;20175;-82
2023/05/30 00:21:27;;;;;;;11.55;3.90;;;11.80;76.60;;;;;;5037363;28;20041;-81
2023/05/30 00:23:52;;;;;;;12.93;4.28;;;11.80;76.50;;;;;;5021381;28;20048;-82
2023/05/30 00:26:18;;;;;;;12.95;4.22;;;11.70;76.60;;;;;;5038011;28;20041;-81
2023/05/30 00:28:44;;;;;;;11.60;5.10;;;11.70;76.60;;;;;;5021325;28;20072;-82
2023/05/30 00:31:09;;;;;;;12.50;4.38;;;11.80;76.40;;;;;;5004916;28;20137;-81
2023/05/30 00:33:35;;;;;;;9.90;4.70;;;11.80;76.20;;;;;;5021306;28;20556;-82
2023/05/30 00:36:01;;;;;;;9.77;4.00;;;11.80;76.20;;;;;;5021459;28;20072;-82
2023/05/30 00:38:27;;;;;;;11.95;4.32;;;11.80;76.40;;;;;;5021623;28;20473;-80
2023/05/30 00:40:52;;;;;;;13.80;4.00;;;11.70;76.40;;;;;;5021350;28;20041;-82
2023/05/30 00:43:19;;;;;;;15.68;4.72;;;11.70;76.70;;;;;;5037524;28;20045;-82
2023/05/30 00:45:46;;;;;;;14.45;4.72;;;11.70;76.50;;;;;;5021270;28;20128;-82
2023/05/30 00:48:12;;;;;;;18.38;6.25;;;11.70;76.20;;;;;;5021282;28;20045;-82
2023/05/30 00:50:39;;;;;;;10.80;3.92;;;11.70;76.20;;;;;;5037364;28;20055;-82
2023/05/30 00:53:06;;;;;;;10.35;3.75;;;11.70;76.00;;;;;;5037660;28;20435;-81
2023/05/30 00:55:32;;;;;;;10.15;3.90;;;11.70;75.70;;;;;;5037267;28;20398;-82
2023/05/30 00:57:58;;;;;;;12.60;3.67;;;11.60;75.70;;;;;;5037120;28;20037;-81
2023/05/30 01:00:26;;;;;;;9.82;3.53;;;11.60;75.80;;;;;;5017474;28;20053;-82
2023/05/30 01:02:56;;;;;;;11.35;4.03;;;11.60;75.80;;;;;;5033990;28;20128;-81
2023/05/30 01:05:24;;;;;;;13.00;4.43;;;11.60;75.90;;;;;;5018486;28;20041;-81
2023/05/30 01:07:51;;;;;;;12.02;3.72;;;11.60;76.00;;;;;;5017858;28;20052;-82
2023/05/30 01:10:17;;;;;;;6.63;3.55;;;11.60;76.10;;;;;;5017378;28;20045;-81
2023/05/30 01:13:00;;;;;;;15.93;4.47;;;11.60;76.40;;;;;;5022598;28;20183;-82
2023/05/30 01:15:29;;;;;;;11.98;3.25;;;11.60;76.30;;;;;;5034736;28;20136;-81
2023/05/30 01:18:01;;;;;;;14.68;4.65;;;11.60;76.30;;;;;;5033866;28;20148;-83
2023/05/30 01:20:37;;;;;;;12.63;4.43;;;11.60;76.20;;;;;;5033920;28;20041;-81
2023/05/30 01:23:06;;;;;;;12.77;4.45;;;11.60;76.20;;;;;;5052395;28;20032;-82
2023/05/30 01:25:58;;;;;;;11.35;4.95;;;11.50;76.30;;;;;;5059927;28;20045;-81
2023/05/30 01:28:28;;;;;;;9.48;4.03;;;11.50;76.30;;;;;;5059924;28;20033;-81
2023/05/30 01:30:56;;;;;;;10.40;4.93;;;11.50;76.50;;;;;;5059780;28;20022;-81
2023/05/30 01:33:25;;;;;;;8.65;3.97;;;11.50;76.50;;;;;;5057627;28;20037;-81
2023/05/30 01:35:52;;;;;;;10.50;4.43;;;11.50;76.50;;;;;;5039034;28;20030;-81
2023/05/30 01:38:17;;;;;;;7.75;3.90;;;11.50;76.50;;;;;;5054926;28;20068;-82
2023/05/30 01:40:50;;;;;;;10.88;3.47;;;11.60;76.50;;;;;;5054770;28;20089;-81
2023/05/30 01:43:48;;;;;;;8.88;4.00;;;11.60;76.70;;;;;;5050595;28;20485;-81
2023/05/30 01:46:32;;;;;;;12.48;4.25;;;11.60;76.60;;;;;;5047347;28;20436;-81
2023/05/30 01:49:21;;;;;;;10.23;4.55;;;11.50;76.80;;;;;;5033392;28;20033;-81
2023/05/30 01:51:58;;;;;;;11.80;3.92;;;11.60;77.00;;;;;;5017284;28;20072;-81
2023/05/30 01:54:27;;;;;;;12.30;3.95;;;11.60;77.00;;;;;;5034006;28;20157;-82
2023/05/30 01:56:56;;;;;;;11.40;4.18;;;11.60;77.10;;;;;;5032875;28;20412;-81
2023/05/30 01:59:25;;;;;;;12.90;4.63;;;11.60;77.10;;;;;;5016478;28;20041;-81
2023/05/30 02:01:53;;;;;;;11.55;4.25;;;11.70;77.30;;;;;;5032690;28;20494;-81
2023/05/30 02:04:19;;;;;;;11.98;4.00;;;11.70;77.30;;;;;;5032726;28;20516;-82
2023/05/30 02:06:45;;;;;;;11.38;3.60;;;11.70;77.50;;;;;;5000050;28;20041;-81
2023/05/30 02:09:10;;;;;;;12.85;4.30;;;11.70;77.60;;;;;;5016268;28;20037;-81
2023/05/30 02:11:37;;;;;;;9.35;4.07;;;11.70;77.40;;;;;;5016221;28;20051;-81
2023/05/30 02:14:04;;;;;;;15.07;5.38;;;11.70;77.40;;;;;;5016322;28;20037;-80
2023/05/30 02:16:30;;;;;;;11.88;4.40;;;11.70;77.50;;;;;;5032645;28;20441;-81
2023/05/30 02:18:56;;;;;;;13.68;4.57;;;11.70;77.60;;;;;;5016224;28;20048;-81
2023/05/30 02:21:22;;;;;;;14.50;4.10;;;11.70;77.60;;;;;;5032409;28;20041;-81
2023/05/30 02:23:48;;;;;;;13.50;4.10;;;11.70;77.50;;;;;;5032532;28;20050;-80
2023/05/30 02:26:13;;;;;;;15.60;4.43;;;11.70;77.20;;;;;;5016186;28;20072;-83
2023/05/30 02:28:39;;;;;;;26.23;5.65;;;11.80;76.50;;;;;;5015999;28;20033;-82
2023/05/30 02:31:05;;;;;;;15.13;4.28;;;11.70;76.70;;;;;;5015969;28;20048;-82
2023/05/30 02:33:31;;;;;;;10.48;4.15;;;11.70;76.50;;;;;;5015907;28;20072;-81
2023/05/30 02:35:57;;;;;;;15.80;4.25;;;11.70;76.80;;;;;;5033391;28;20038;-82
2023/05/30 02:38:22;;;;;;;13.60;4.53;;;11.70;77.00;;;;;;5016118;28;20047;-83
2023/05/30 02:40:48;;;;;;;15.52;4.95;;;11.70;77.10;;;;;;4999839;28;20142;-82
2023/05/30 02:43:13;;;;;;;11.65;4.45;;;11.70;77.10;;;;;;5015656;28;20379;-81
2023/05/30 02:45:39;;;;;;;12.10;3.90;;;11.70;77.10;;;;;;5015834;28;20077;-81
2023/05/30 02:48:05;;;;;;;13.18;4.22;;;11.70;77.20;;;;;;5015749;28;20046;-81
2023/05/30 02:50:31;;;;;;;10.88;4.25;;;11.70;77.30;;;;;;5016027;28;20046;-82
2023/05/30 02:52:57;;;;;;;12.65;4.63;;;11.70;77.30;;;;;;4999475;28;20125;-81
2023/05/30 02:55:23;;;;;;;13.98;3.78;;;11.70;77.40;;;;;;5015818;28;20092;-80
2023/05/30 02:57:49;;;;;;;12.50;4.25;;;11.70;77.50;;;;;;5015691;28;20037;-81
2023/05/30 03:00:15;;;;;;;11.18;3.95;;;11.70;77.50;;;;;;5018172;28;20071;-82
2023/05/30 03:02:42;;;;;;;11.73;3.95;;;11.70;77.50;;;;;;5051988;28;20044;-82
2023/05/30 03:05:10;;;;;;;15.07;4.18;;;11.70;77.80;;;;;;5035293;28;20048;-81
2023/05/30 03:07:36;;;;;;;12.90;4.40;;;11.70;77.60;;;;;;5035905;28;20052;-81
2023/05/30 03:10:03;;;;;;;18.85;4.47;;;11.70;77.70;;;;;;5035187;28;20051;-81
2023/05/30 03:12:29;;;;;;;10.18;4.00;;;11.70;78.10;;;;;;5035240;28;20044;-81
2023/05/30 03:14:54;;;;;;;15.75;4.13;;;11.70;78.00;;;;;;5018728;28;20044;-81
2023/05/30 03:17:21;;;;;;;11.25;3.97;;;11.70;78.20;;;;;;5035097;28;20037;-80
2023/05/30 03:19:47;;;;;;;9.45;3.92;;;11.80;78.20;;;;;;5018455;28;20037;-81
2023/05/30 03:22:12;;;;;;;14.45;4.90;;;11.80;78.00;;;;;;5001834;28;20546;-81
2023/05/30 03:24:39;;;;;;;16.85;4.80;;;11.70;78.20;;;;;;5034855;28;20029;-82
2023/05/30 03:27:05;;;;;;;13.02;4.45;;;11.80;78.60;;;;;;5018086;28;20041;-81
2023/05/30 03:29:31;;;;;;;13.65;4.28;;;11.70;78.40;;;;;;5034657;28;20045;-82
2023/05/30 03:31:57;;;;;;;12.52;4.30;;;11.80;78.70;;;;;;5035015;28;20044;-82
2023/05/30 03:34:23;;;;;;;15.27;4.68;;;11.80;78.70;;;;;;5018979;28;20033;-81
2023/05/30 03:36:52;;;;;;;11.90;4.82;;;11.80;78.40;;;;;;5018646;28;20511;-81
2023/05/30 03:39:21;;;;;;;12.75;4.15;;;11.80;78.40;;;;;;5018549;28;20076;-81
2023/05/30 03:41:47;;;;;;;14.18;3.90;;;11.80;78.20;;;;;;5034974;28;20076;-81
2023/05/30 03:44:14;;;;;;;11.88;4.78;;;11.80;77.90;;;;;;5018896;28;20069;-81
2023/05/30 03:46:41;;;;;;;9.85;3.92;;;11.80;77.70;;;;;;5035288;28;20450;-80
2023/05/30 03:49:06;;;;;;;13.60;4.60;;;11.80;77.80;;;;;;5034946;28;20195;-81
2023/05/30 03:51:36;;;;;;;12.43;4.43;;;11.80;77.70;;;;;;5018612;28;20051;-81
2023/05/30 03:54:01;;;;;;;11.85;4.75;;;11.80;77.70;;;;;;5018382;28;20052;-81
2023/05/30 03:56:27;;;;;;;11.77;4.00;;;11.80;77.80;;;;;;5054016;28;20151;-82
2023/05/30 03:58:53;;;;;;;10.63;3.78;;;11.80;77.70;;;;;;5021940;28;20477;-81
2023/05/30 04:01:19;;;;;;;16.63;4.88;;;11.80;77.70;;;;;;5034775;28;20054;-82
2023/05/30 04:03:46;;;;;;;11.40;5.20;;;11.80;77.80;;;;;;5018862;28;20049;-80
2023/05/30 04:06:12;;;;;;;13.07;4.15;;;11.80;77.70;;;;;;5018656;28;20049;-81
2023/05/30 04:08:39;;;;;;;13.52;3.70;;;11.90;77.60;;;;;;5018980;28;20429;-81
2023/05/30 04:11:06;;;;;;;9.02;3.97;;;11.90;77.70;;;;;;5018614;28;20049;-81
2023/05/30 04:13:32;;;;;;;12.98;3.95;;;11.90;77.70;;;;;;5018421;28;20080;-82
2023/05/30 04:16:00;;;;;;;14.63;4.82;;;11.90;77.70;;;;;;5018115;28;20068;-81
2023/05/30 04:18:26;;;;;;;17.67;5.03;;;11.90;77.80;;;;;;5034828;28;20045;-82
2023/05/30 04:20:51;;;;;;;9.70;3.67;;;11.90;77.70;;;;;;5034896;28;20120;-82
2023/05/30 04:23:20;;;;;;;18.42;4.72;;;12.00;77.80;;;;;;5018513;28;20029;-81
2023/05/30 04:25:47;;;;;;;12.98;4.22;;;12.00;77.80;;;;;;5034863;28;20475;-82
2023/05/30 04:28:16;;;;;;;11.43;3.72;;;12.00;77.90;;;;;;5002291;28;20493;-81
2023/05/30 04:30:43;;;;;;;17.77;4.25;;;12.00;78.00;;;;;;5034687;28;20132;-82
2023/05/30 04:33:09;;;;;;;10.75;4.43;;;12.00;77.90;;;;;;5034784;28;20060;-82
2023/05/30 04:35:35;;;;;;;14.30;3.95;;;12.00;77.80;;;;;;5001995;28;20118;-81
2023/05/30 04:38:00;;;;;;;13.90;4.70;;;12.00;77.70;;;;;;5002202;28;20037;-81
2023/05/30 04:40:27;;;;;;;9.80;3.78;;;12.00;77.60;;;;;;4985433;28;20527;-81
2023/05/30 04:42:53;;;;;;;12.88;3.92;;;12.00;77.80;;;;;;5034686;28;20125;-82
2023/05/30 04:45:19;;;;;;;13.57;4.15;;;12.00;77.80;;;;;;5017965;28;20132;-81
2023/05/30 04:47:45;;;;;;;12.23;4.72;;;12.00;77.80;;;;;;5017999;28;20052;-81
2023/05/30 04:50:15;;;;;;;11.80;4.00;;;12.00;77.80;;;;;;5017902;28;20041;-81
2023/05/30 04:52:42;;;;;;;11.10;3.80;;;12.10;77.90;;;;;;5034654;28;20077;-81
2023/05/30 04:55:09;;;;;;;13.27;4.13;;;12.10;78.10;;;;;;5017940;28;20088;-81
2023/05/30 04:57:37;;;;;;;10.82;3.95;;;12.10;78.00;;;;;;5018393;28;20421;-81
2023/05/30 05:00:04;;;;;;;11.48;3.80;;;12.10;78.30;;;;;;5034094;28;20046;-81
2023/05/30 05:02:30;;;;;;;14.95;3.75;;;12.20;78.40;;;;;;5017691;28;20053;-81
2023/05/30 05:04:56;;;;;;;9.25;3.15;;;12.10;78.70;;;;;;5017670;28;20100;-82
2023/05/30 05:07:21;;;;;;;8.93;3.42;;;12.10;78.70;;;;;;5035005;28;20041;-80
2023/05/30 05:09:47;;;;;;;8.50;3.00;;;12.10;78.60;;;;;;5003063;28;20044;-81
2023/05/30 05:12:13;;;;;;;7.93;3.47;;;12.10;78.60;;;;;;5018492;28;20448;-80
2023/05/30 05:14:41;;;;;;;9.80;3.63;;;12.00;78.70;;;;;;5001788;28;20037;-80
2023/05/30 05:17:07;;;;;;;10.98;3.22;;;12.00;78.80;;;;;;5017533;28;20049;-81
2023/05/30 05:19:34;;;;;;;8.77;3.20;;;12.10;79.10;;;;;;5001144;28;20522;-82
2023/05/30 05:22:02;;;;;;;6.13;2.97;;;12.10;79.20;;;;;;5017421;28;20037;-80
2023/05/30 05:24:28;;;;;;;9.73;3.63;;;12.20;79.10;;;;;;5017958;28;20045;-81
2023/05/30 05:26:54;;;;;;;9.88;3.55;;;12.10;79.10;;;;;;5034058;28;20041;-80
2023/05/30 05:29:20;;;;;;;8.90;3.28;;;12.10;79.30;;;;;;5033558;28;20469;-78
2023/05/30 05:31:46;;;;;;;11.15;4.53;;;12.10;79.50;;;;;;5017241;28;20045;-79
2023/05/30 05:34:11;;;;;;;8.07;3.45;;;12.10;79.50;;;;;;5017238;28;20047;-78
2023/05/30 05:36:37;;;;;;;11.20;3.40;;;12.10;79.70;;;;;;5033359;28;20038;-81
2023/05/30 05:39:03;;;;;;;9.73;3.42;;;12.10;79.60;;;;;;5016886;28;20033;-81
2023/05/30 05:41:28;;;;;;;10.75;3.33;;;12.20;79.90;;;;;;5033377;28;20041;-81
2023/05/30 05:43:54;;;;;;;10.10;3.00;;;12.20;79.80;;;;;;5017068;28;20037;-81
2023/05/30 05:46:20;;;;;;;6.85;3.05;;;12.20;79.90;;;;;;5016782;28;20073;-81
2023/05/30 05:48:46;;;;;;;8.57;2.90;;;12.20;79.90;;;;;;5000651;28;20053;-82
2023/05/30 05:51:12;;;;;;;8.75;2.63;;;12.20;80.10;;;;;;5016849;28;20038;-81
2023/05/30 05:53:37;;;;;;;7.57;3.03;;;12.20;80.10;;;;;;5017009;28;20038;-82
2023/05/30 05:56:03;;;;;;;8.63;3.50;;;12.20;80.10;;;;;;5016512;28;20045;-81
2023/05/30 05:58:29;;;;;;;7.63;3.35;;;12.20;80.10;;;;;;5016567;28;20064;-79
2023/05/30 06:00:54;;;;;;;9.50;3.20;;;12.20;80.10;;;;;;5032489;28;20054;-80
2023/05/30 06:03:20;;;;;;;6.18;3.15;;;12.30;80.20;;;;;;5016626;28;20052;-79
2023/05/30 06:05:46;;;;;;;9.63;3.47;;;12.30;80.20;;;;;;5033195;28;20099;-80
2023/05/30 06:08:16;;;;;;;11.75;4.40;;;12.30;80.50;;;;;;5000731;28;20044;-80
2023/05/30 06:10:41;;;;;;;9.15;3.08;;;12.30;80.70;;;;;;5018285;28;20107;-81
2023/05/30 06:13:07;;;;;;;8.68;3.00;;;12.30;80.90;;;;;;5017513;28;20509;-81
2023/05/30 06:15:33;;;;;;;10.88;4.40;;;12.30;80.90;;;;;;5032872;28;20402;-81
2023/05/30 06:17:58;;;;;;;7.30;2.83;;;12.30;81.00;;;;;;5016008;28;20037;-81
2023/05/30 06:20:24;;;;;;;6.90;2.72;;;12.30;81.00;;;;;;5000685;28;20037;-80
2023/05/30 06:22:50;;;;;;;4.88;2.25;;;12.40;81.20;;;;;;5016472;28;20485;-80
2023/05/30 06:25:16;;;;;;;5.75;2.92;;;12.30;81.00;;;;;;5016449;28;20041;-80
2023/05/30 06:27:42;;;;;;;9.38;3.42;;;12.40;81.20;;;;;;5000222;28;20566;-80
2023/05/30 06:30:08;;;;;;;5.95;3.20;;;12.40;81.10;;;;;;5016280;28;20136;-80
2023/05/30 06:32:33;;;;;;;6.82;2.95;;;12.50;80.90;;;;;;5032597;28;20045;-80
2023/05/30 06:34:59;;;;;;;7.55;3.15;;;12.50;80.70;;;;;;5016226;28;20041;-81
2023/05/30 06:37:25;;;;;;;8.30;2.95;;;12.50;80.90;;;;;;5016014;28;20041;-80
2023/05/30 06:39:50;;;;;;;10.38;3.33;;;12.50;80.90;;;;;;5016113;28;20037;-81
2023/05/30 06:42:16;;;;;;;10.02;3.50;;;12.50;81.10;;;;;;4999632;28;20041;-81
2023/05/30 06:44:42;;;;;;;7.68;2.70;;;12.50;81.20;;;;;;5015812;28;20076;-80
2023/05/30 06:47:08;;;;;;;5.45;2.28;;;12.50;81.10;;;;;;5015556;28;20041;-81
2023/05/30 06:49:37;;;;;;;5.47;2.28;;;12.50;81.10;;;;;;5015779;28;20080;-81
2023/05/30 06:52:03;;;;;;;4.85;2.20;;;12.50;81.30;;;;;;5015684;28;20045;-81
2023/05/30 06:54:28;;;;;;;8.73;2.45;;;12.60;81.10;;;;;;5015934;28;20037;-81
2023/05/30 06:56:54;;;;;;;4.72;2.08;;;12.60;81.10;;;;;;5032366;28;20041;-81
2023/05/30 06:59:20;;;;;;;6.43;2.60;;;12.70;81.20;;;;;;5015837;28;20069;-81
2023/05/30 07:01:46;;;;;;;4.32;2.20;;;12.70;81.20;;;;;;5048642;28;20144;-81
2023/05/30 07:04:12;;;;;;;7.97;2.00;;;12.70;81.30;;;;;;5032132;28;20095;-78
2023/05/30 07:06:37;;;;;;;8.52;2.50;;;12.70;81.30;;;;;;5032121;28;20042;-81
2023/05/30 07:09:03;;;;;;;4.65;2.03;;;12.70;81.20;;;;;;5032148;28;20041;-80
2023/05/30 07:11:29;;;;;;;4.93;2.38;;;12.70;81.40;;;;;;4999516;28;20044;-81
2023/05/30 07:13:55;;;;;;;5.82;1.90;;;12.70;81.90;;;;;;5049046;28;20824;-81
2023/05/30 07:16:20;;;;;;;8.60;2.15;;;12.70;82.10;;;;;;5016291;28;20041;-81
2023/05/30 07:18:46;;;;;;;3.50;2.05;;;12.70;82.40;;;;;;5033149;28;20076;-80
2023/05/30 07:21:12;;;;;;;5.70;2.00;;;12.60;82.30;;;;;;5032508;28;20444;-80
2023/05/30 07:23:37;;;;;;;7.47;1.88;;;12.70;82.50;;;;;;5032192;28;20038;-82
2023/05/30 07:26:03;;;;;;;4.55;2.15;;;12.70;82.70;;;;;;5015892;28;20049;-82
2023/05/30 07:28:29;;;;;;;4.72;1.70;;;12.80;82.80;;;;;;5048677;28;20048;-82
2023/05/30 07:30:54;;;;;;;3.20;1.50;;;12.80;82.70;;;;;;5017530;28;20038;-82
2023/05/30 07:33:20;;;;;;;4.32;1.50;;;12.90;82.50;;;;;;5035853;28;20041;-82
2023/05/30 07:35:46;;;;;;;4.75;1.77;;;13.00;82.30;;;;;;5035768;28;20049;-83
2023/05/30 07:38:11;;;;;;;3.13;1.45;;;13.00;82.00;;;;;;5019163;28;20481;-83
2023/05/30 07:40:37;;;;;;;4.38;1.65;;;13.10;81.80;;;;;;5035435;28;20040;-83
2023/05/30 07:43:03;;;;;;;8.48;1.83;;;13.10;81.60;;;;;;5035487;28;20064;-81
2023/05/30 07:45:29;;;;;;;6.57;2.10;;;13.20;81.50;;;;;;5035464;28;20128;-82
2023/05/30 07:47:54;;;;;;;4.90;2.00;;;13.20;81.30;;;;;;5018980;28;20049;-82
2023/05/30 07:50:20;;;;;;;3.67;1.92;;;13.10;81.40;;;;;;5051922;28;20041;-81
2023/05/30 07:52:46;;;;;;;4.63;1.90;;;13.20;81.50;;;;;;5028083;28;20042;-82
2023/05/30 07:55:12;;;;;;;4.13;1.55;;;13.10;81.50;;;;;;5032212;28;20044;-80
2023/05/30 07:57:38;;;;;;;3.33;1.20;;;13.10;82.30;;;;;;5033470;28;20040;-79
2023/05/30 08:00:08;;;;;;;2.90;1.50;;;13.10;82.90;;;;;;5015825;28;20482;-79
2023/05/30 08:02:35;;;;;;;5.50;1.20;;;13.10;82.70;;;;;;5012269;28;20053;-80
2023/05/30 08:05:00;;;;;;;3.70;1.17;;;13.10;83.00;;;;;;4981455;28;20044;-82
2023/05/30 08:07:26;;;;;;;4.07;1.55;;;13.00;83.20;;;;;;5000202;28;20124;-81
2023/05/30 08:09:52;;;;;;;4.88;1.67;;;13.10;83.60;;;;;;5015670;28;20065;-83
2023/05/30 08:12:19;;;;;;;3.38;1.50;;;13.20;84.10;;;;;;4999147;28;20043;-81
2023/05/30 08:14:45;;;;;;;4.80;1.25;;;13.30;84.20;;;;;;5032793;28;20033;-81
2023/05/30 08:17:12;;;;;;;2.85;1.10;;;13.40;84.00;;;;;;4996549;28;20723;-80
2023/05/30 08:19:39;;;;;;;4.15;1.10;;;13.50;83.20;;;;;;5031899;28;20120;-81
2023/05/30 08:22:06;;;;;;;4.75;1.48;;;13.50;82.70;;;;;;5015441;28;20045;-82
2023/05/30 08:24:32;;;;;;;3.10;1.23;;;13.60;82.50;;;;;;5032503;28;20041;-81
2023/05/30 08:27:00;;;;;;;2.92;1.10;;;13.60;82.10;;;;;;5012857;28;20045;-81
2023/05/30 08:29:26;;;;;;;2.47;1.40;;;13.70;81.40;;;;;;4989604;28;20132;-79
2023/05/30 08:31:52;;;;;;;2.92;1.30;;;13.80;80.70;;;;;;5013452;28;20504;-81
2023/05/30 08:34:17;;;;;;;1.65;1.13;;;13.90;79.30;;;;;;5032129;28;20037;-82
2023/05/30 08:36:43;;;;;;;2.83;1.30;;;14.00;79.00;;;;;;5032306;28;20115;-82
2023/05/30 08:39:12;;;;;;;1.90;1.08;;;14.00;79.20;;;;;;5012762;28;20073;-81
2023/05/30 08:41:43;;;;;;;2.65;1.13;;;14.10;79.00;;;;;;4994140;28;20477;-82
2023/05/30 08:44:09;;;;;;;2.22;0.90;;;14.20;78.70;;;;;;5032224;28;20041;-84
2023/05/30 08:46:42;;;;;;;1.75;0.90;;;14.20;78.30;;;;;;5016070;28;20064;-82
2023/05/30 08:49:17;;;;;;;2.60;0.80;;;14.20;78.30;;;;;;5032147;28;20095;-80
2023/05/30 08:51:48;;;;;;;1.70;0.82;;;14.10;77.80;;;;;;5031407;28;20544;-81
2023/05/30 08:54:22;;;;;;;3.78;1.27;;;14.10;77.80;;;;;;5012391;28;20041;-78
2023/05/30 08:57:12;;;;;;;1.40;1.05;;;14.10;77.80;;;;;;4996261;28;20052;-81
2023/05/30 08:59:40;;;;;;;2.85;0.98;;;14.10;78.10;;;;;;5012067;28;20038;-82
2023/05/30 09:02:07;;;;;;;4.20;1.42;;;14.10;78.10;;;;;;5010050;28;20440;-83
2023/05/30 09:04:34;;;;;;;2.08;1.33;;;14.00;78.40;;;;;;5015662;28;20084;-83
2023/05/30 09:07:03;;;;;;;3.65;1.40;;;14.00;79.10;;;;;;5031928;28;20052;-80
2023/05/30 09:09:32;;;;;;;3.00;1.23;;;13.80;79.50;;;;;;5012966;28;20049;-82
2023/05/30 09:11:58;;;;;;;1.98;1.00;;;13.80;80.10;;;;;;5014491;28;20515;-80
2023/05/30 09:14:24;;;;;;;2.30;0.93;;;13.70;80.00;;;;;;5012176;28;20046;-83
2023/05/30 09:16:50;;;;;;;2.05;1.00;;;13.70;80.10;;;;;;4989535;28;20046;-80
2023/05/30 09:19:15;;;;;;;3.45;1.30;;;13.70;80.20;;;;;;5015193;28;20041;-80
2023/05/30 09:21:41;;;;;;;1.48;1.10;;;13.70;80.60;;;;;;5013954;28;20076;-78
2023/05/30 09:24:07;;;;;;;3.17;1.05;;;13.80;80.20;;;;;;5031866;28;21168;-78
2023/05/30 09:26:33;;;;;;;1.52;1.10;;;13.90;79.90;;;;;;5014779;28;20041;-79
2023/05/30 09:29:09;;;;;;;2.35;1.40;;;14.00;79.60;;;;;;5031505;28;20041;-77
2023/05/30 09:31:35;;;;;;;2.40;1.25;;;14.00;79.70;;;;;;5029661;28;20056;-78
2023/05/30 09:34:02;;;;;;;3.20;1.27;;;14.00;80.20;;;;;;5014504;28;20077;-78
2023/05/30 09:36:28;;;;;;;4.32;1.50;;;14.00;80.00;;;;;;5031370;28;20103;-78
2023/05/30 09:39:02;;;;;;;6.60;1.90;;;13.90;79.50;;;;;;5013690;28;20037;-82
2023/05/30 09:41:28;;;;;;;6.18;1.98;;;13.70;79.70;;;;;;5027711;28;20048;-79
2023/05/30 09:43:56;;;;;;;6.95;1.77;;;13.70;79.40;;;;;;5028676;28;20041;-77
2023/05/30 09:46:23;;;;;;;3.40;1.45;;;13.60;79.70;;;;;;5027716;28;20053;-78
2023/05/30 09:48:50;;;;;;;5.57;1.67;;;13.70;79.40;;;;;;5014866;28;20108;-78
2023/05/30 09:51:16;;;;;;;8.48;2.20;;;13.70;79.20;;;;;;5031037;28;20103;-77
2023/05/30 09:54:03;;;;;;;2.53;1.50;;;13.70;78.80;;;;;;5032781;28;20041;-77
2023/05/30 09:56:29;;;;;;;4.00;1.40;;;13.80;78.80;;;;;;5016449;28;20052;-77
2023/05/30 09:59:00;;;;;;;4.55;1.90;;;14.00;78.60;;;;;;5033471;28;20037;-77
2023/05/30 10:01:34;;;;;;;2.30;1.40;;;14.10;78.40;;;;;;5032801;28;20053;-79
2023/05/30 10:03:59;;;;;;;1.90;1.27;;;14.20;78.10;;;;;;5033093;28;20034;-77
2023/05/30 10:06:26;;;;;;;2.03;1.20;;;14.20;77.40;;;;;;5016392;28;20452;-78
2023/05/30 10:08:52;;;;;;;2.47;1.40;;;14.30;77.10;;;;;;5016085;28;20047;-78
2023/05/30 10:11:18;;;;;;;3.17;1.02;;;14.20;77.60;;;;;;5016219;28;20128;-77
2023/05/30 10:13:44;;;;;;;2.05;1.33;;;14.20;77.70;;;;;;5016102;28;20128;-81
2023/05/30 10:16:19;;;;;;;2.53;0.80;;;14.20;77.80;;;;;;4999899;28;20041;-80
2023/05/30 10:18:53;;;;;;;3.10;1.10;;;14.10;77.80;;;;;;5016258;28;20116;-79
2023/05/30 10:21:25;;;;;;;2.47;1.00;;;14.10;78.00;;;;;;5016250;28;20865;-81
2023/05/30 10:23:53;;;;;;;1.75;0.90;;;14.00;77.60;;;;;;5032695;28;20612;-80
2023/05/30 10:26:22;;;;;;;2.13;0.90;;;14.00;77.80;;;;;;5032393;28;20088;-80
2023/05/30 10:28:49;;;;;;;4.47;1.00;;;14.00;78.10;;;;;;5015877;28;20512;-81
2023/05/30 10:31:15;;;;;;;2.75;1.15;;;14.00;78.00;;;;;;5016073;28;20095;-81
2023/05/30 10:33:43;;;;;;;1.65;0.80;;;14.00;78.00;;;;;;5032628;28;20390;-82
2023/05/30 10:36:09;;;;;;;1.70;1.13;;;14.10;78.10;;;;;;5032591;28;20099;-81
2023/05/30 10:38:46;;;;;;;1.23;0.68;;;14.10;77.90;;;;;;5015937;28;20037;-82
2023/05/30 10:41:37;;;;;;;2.95;0.80;;;14.30;77.70;;;;;;5032244;28;20063;-81
2023/05/30 10:44:32;;;;;;;2.30;0.80;;;14.50;77.80;;;;;;5032598;28;20390;-83
2023/05/30 10:47:29;;;;;;;1.02;0.60;;;14.60;77.60;;;;;;5032190;28;20124;-81
2023/05/30 10:49:59;;;;;;;1.55;0.80;;;14.60;76.60;;;;;;5032341;28;20041;-81
2023/05/30 10:52:32;;;;;;;1.35;0.60;;;14.60;76.00;;;;;;5032109;28;20080;-82
2023/05/30 10:54:58;;;;;;;1.77;0.60;;;14.70;75.90;;;;;;5032068;28;20105;-81
2023/05/30 10:57:31;;;;;;;1.00;0.60;;;14.70;75.40;;;;;;4999383;28;20285;-81
2023/05/30 11:00:08;;;;;;;2.40;0.80;;;14.70;74.60;;;;;;5032398;28;20079;-82
2023/05/30 11:02:38;;;;;;;2.17;0.80;;;14.80;74.70;;;;;;5012276;28;20289;-81
2023/05/30 11:05:09;;;;;;;2.67;0.80;;;14.90;74.30;;;;;;4998228;28;20038;-81
2023/05/30 11:07:41;;;;;;;1.05;0.75;;;15.00;73.60;;;;;;5013059;28;20038;-80
2023/05/30 11:10:11;;;;;;;2.30;1.10;;;15.00;73.10;;;;;;5016568;28;20413;-83
2023/05/30 11:12:44;;;;;;;1.88;0.98;;;15.10;73.20;;;;;;4996002;28;20453;-81
2023/05/30 11:15:15;;;;;;;1.55;1.10;;;15.20;73.20;;;;;;5036012;28;20033;-81
2023/05/30 11:17:41;;;;;;;1.50;1.13;;;15.20;72.00;;;;;;5036128;28;20088;-80
2023/05/30 11:20:16;;;;;;;1.38;1.15;;;15.20;71.80;;;;;;5036162;28;20042;-81
2023/05/30 11:23:01;;;;;;;3.58;1.23;;;15.30;71.80;;;;;;5036974;28;20351;-82
2023/05/30 11:25:32;;;;;;;2.40;1.13;;;15.20;73.00;;;;;;5052571;28;20045;-81
2023/05/30 11:28:04;;;;;;;2.88;1.20;;;15.20;73.80;;;;;;5036068;28;20076;-79
2023/05/30 11:30:37;;;;;;;2.25;0.90;;;15.10;74.10;;;;;;5035640;28;20489;-81
2023/05/30 11:33:04;;;;;;;2.57;1.00;;;15.00;74.10;;;;;;5020081;28;20045;-80
2023/05/30 11:35:31;;;;;;;2.22;0.93;;;15.00;74.50;;;;;;5026802;28;20304;-80
2023/05/30 11:37:57;;;;;;;3.50;0.93;;;15.00;74.80;;;;;;5035670;28;20041;-81
2023/05/30 11:40:26;;;;;;;1.25;0.82;;;15.00;74.90;;;;;;5035810;28;20030;-81
2023/05/30 11:42:56;;;;;;;1.48;0.93;;;15.00;75.20;;;;;;5019034;28;20041;-81
2023/05/30 11:45:29;;;;;;;2.10;1.13;;;15.10;75.30;;;;;;5035382;28;20037;-82
2023/05/30 11:48:11;;;;;;;3.30;1.20;;;15.30;75.20;;;;;;5051947;28;20041;-81
2023/05/30 11:50:41;;;;;;;1.25;0.90;;;15.50;74.00;;;;;;5019108;28;20049;-81
2023/05/30 11:53:14;;;;;;;1.30;0.90;;;15.50;73.30;;;;;;5035303;28;20045;-81
2023/05/30 11:55:49;;;;;;;1.33;0.75;;;15.70;73.10;;;;;;5035230;28;20505;-82
2023/05/30 11:58:16;;;;;;;0.90;0.60;;;16.00;73.40;;;;;;5018658;28;20047;-83
2023/05/30 12:00:42;;;;;;;2.28;0.60;;;16.10;71.30;;;;;;5037144;28;20037;-83
2023/05/30 12:03:18;;;;;;;1.92;0.77;;;16.00;70.00;;;;;;5038459;28;20041;-83
2023/05/30 12:05:45;;;;;;;1.50;0.68;;;16.00;70.60;;;;;;5022271;28;20052;-82
2023/05/30 12:08:13;;;;;;;2.30;1.00;;;16.00;70.50;;;;;;5021873;28;20045;-81
2023/05/30 12:10:39;;;;;;;2.58;1.00;;;16.10;69.70;;;;;;5038264;28;20045;-80
2023/05/30 12:13:06;;;;;;;1.73;0.95;;;16.10;70.30;;;;;;5038125;28;20065;-81
2023/05/30 12:15:32;;;;;;;1.33;0.93;;;16.00;70.20;;;;;;5037927;28;20447;-81
2023/05/30 12:18:01;;;;;;;2.78;1.40;;;16.10;70.60;;;;;;5005229;28;20128;-83
2023/05/30 12:20:27;;;;;;;2.38;1.00;;;16.20;70.60;;;;;;5038136;28;20041;-83
2023/05/30 12:22:53;;;;;;;2.45;1.15;;;16.30;70.80;;;;;;5038077;28;20162;-81
2023/05/30 12:25:26;;;;;;;2.25;1.40;;;16.40;70.50;;;;;;5038319;28;20069;-81
2023/05/30 12:27:54;;;;;;;2.07;1.47;;;16.40;70.50;;;;;;5021692;28;20045;-80
2023/05/30 12:30:21;;;;;;;3.72;1.48;;;16.40;70.50;;;;;;5021840;28;20041;-82
2023/05/30 12:32:46;;;;;;;2.25;1.30;;;16.40;70.30;;;;;;5022277;28;20106;-82
2023/05/30 12:35:13;;;;;;;2.53;1.50;;;16.40;70.00;;;;;;5022723;28;20060;-81
2023/05/30 12:37:39;;;;;;;4.20;1.40;;;16.30;70.10;;;;;;5040045;28;20037;-82
2023/05/30 12:40:06;;;;;;;1.95;1.30;;;16.30;70.50;;;;;;5021643;28;20037;-83
2023/05/30 12:42:33;;;;;;;2.50;1.15;;;16.30;70.30;;;;;;5038128;28;20096;-81
2023/05/30 12:45:02;;;;;;;2.70;1.65;;;16.20;70.40;;;;;;5024074;28;20047;-82
2023/05/30 12:47:28;;;;;;;2.80;1.30;;;16.10;70.50;;;;;;5022047;28;20144;-80